createdAt,value
2018-05-03T00:00:51.837Z,26.17
2018-05-03T00:03:19.579Z,23.63
2018-05-03T00:05:50.240Z,24.03
2018-05-03T00:08:19.520Z,21.27
2018-05-03T00:10:47.036Z,23.27
2018-05-03T00:13:16.223Z,22.07
2018-05-03T00:15:45.119Z,21.90
2018-05-03T00:18:12.643Z,22.73
2018-05-03T00:20:40.153Z,20.33
2018-05-03T00:23:08.586Z,26.97
2018-05-03T00:25:39.101Z,22.90
2018-05-03T00:28:09.138Z,22.43
2018-05-03T00:30:37.172Z,22.67
2018-05-03T00:33:07.433Z,28.57
2018-05-03T00:35:53.576Z,22.67
2018-05-03T00:38:23.205Z,27.33
2018-05-03T00:40:50.715Z,22.03
2018-05-03T00:43:19.147Z,29.80
2018-05-03T00:45:46.664Z,23.60
2018-05-03T01:01:28.315Z,23.60
2018-05-03T01:03:55.879Z,23.70
2018-05-03T01:06:23.405Z,25.57
2018-05-03T01:08:50.935Z,25.87
2018-05-03T01:11:20.377Z,26.47
2018-05-03T01:13:48.446Z,23.03
2018-05-03T01:16:16.126Z,26.97
2018-05-03T01:18:43.626Z,25.33
2018-05-03T01:21:11.153Z,23.70
2018-05-03T01:23:38.656Z,25.73
2018-05-03T01:26:07.123Z,23.93
2018-05-03T01:28:36.644Z,29.83
2018-05-03T01:31:05.306Z,26.50
2018-05-03T01:33:34.828Z,27.40
2018-05-03T01:36:14.715Z,27.63
2018-05-03T01:38:42.407Z,30.47
2018-05-03T01:41:09.954Z,27.37
2018-05-03T01:43:38.269Z,26.70
2018-05-03T01:46:05.879Z,31.50
2018-05-03T01:48:35.396Z,29.07
2018-05-03T01:51:04.554Z,28.33
2018-05-03T01:53:32.080Z,26.80
2018-05-03T01:56:00.857Z,30.17
2018-05-03T01:58:29.713Z,28.83
2018-05-03T02:00:58.395Z,31.13
2018-05-03T02:03:25.908Z,31.03
2018-05-03T02:05:53.467Z,29.93
2018-05-03T02:08:21.971Z,29.47
2018-05-03T02:10:50.769Z,29.67
2018-05-03T02:13:19.620Z,29.17
2018-05-03T02:15:50.221Z,34.50
2018-05-03T02:18:18.662Z,29.27
2018-05-03T02:20:46.200Z,33.37
2018-05-03T02:23:13.787Z,33.10
2018-05-03T02:25:43.500Z,34.40
2018-05-03T02:28:11.457Z,38.87
2018-05-03T02:30:39.887Z,31.87
2018-05-03T02:33:07.522Z,32.17
2018-05-03T02:35:35.096Z,34.97
2018-05-03T02:38:03.659Z,36.10
2018-05-03T02:40:32.489Z,37.77
2018-05-03T02:43:00.749Z,37.70
2018-05-03T02:45:28.761Z,34.37
2018-05-03T02:47:56.706Z,38.90
2018-05-03T02:50:27.522Z,35.10
2018-05-03T02:52:55.060Z,37.83
2018-05-03T02:55:22.624Z,38.10
2018-05-03T02:58:20.628Z,39.47
2018-05-03T03:01:09.701Z,36.37
2018-05-03T03:03:55.521Z,41.90
2018-05-03T03:06:41.478Z,37.50
2018-05-03T03:09:38.114Z,41.30
2018-05-03T03:15:37.404Z,41.53
2018-05-03T03:18:16.990Z,38.17
2018-05-03T03:21:02.300Z,37.40
2018-05-03T03:23:48.041Z,42.60
2018-05-03T03:26:49.865Z,41.77
2018-05-03T03:29:35.436Z,48.43
2018-05-03T03:32:17.418Z,46.77
2018-05-03T03:34:44.972Z,40.13
2018-05-03T03:37:39.137Z,40.73
2018-05-03T03:40:25.530Z,38.57
2018-05-03T03:43:13.793Z,45.63
2018-05-03T03:45:41.502Z,42.40
2018-05-03T03:48:09.261Z,40.77
2018-05-03T03:50:36.781Z,43.60
2018-05-03T03:53:04.729Z,46.37
2018-05-03T03:55:32.466Z,42.33
2018-05-03T03:58:00.843Z,38.70
2018-05-03T04:00:28.468Z,40.17
2018-05-03T04:02:56.788Z,43.97
2018-05-03T04:05:28.332Z,40.67
2018-05-03T04:07:55.953Z,42.60
2018-05-03T04:10:24.230Z,48.77
2018-05-03T04:12:53.107Z,42.80
2018-05-03T04:15:21.188Z,43.03
2018-05-03T04:18:01.507Z,44.23
2018-05-03T04:20:58.436Z,42.40
2018-05-03T04:23:33.222Z,42.37
2018-05-03T04:26:05.351Z,41.43
2018-05-03T04:28:34.509Z,43.17
2018-05-03T04:31:02.046Z,41.97
2018-05-03T04:33:31.544Z,44.20
2018-05-03T04:36:01.087Z,39.83
2018-05-03T04:38:29.488Z,41.40
2018-05-03T04:40:59.916Z,39.90
2018-05-03T04:43:29.304Z,41.90
2018-05-03T04:45:57.737Z,45.00
2018-05-03T04:48:25.293Z,45.80
2018-05-03T04:50:53.511Z,43.33
2018-05-03T04:53:21.046Z,41.27
2018-05-03T04:55:48.657Z,38.43
2018-05-03T04:58:17.494Z,37.53
2018-05-03T05:00:45.030Z,33.77
2018-05-03T05:03:12.590Z,35.70
2018-05-03T05:05:40.967Z,31.40
2018-05-03T05:08:08.510Z,34.20
2018-05-03T05:10:38.029Z,37.30
2018-05-03T05:13:05.677Z,37.87
2018-05-03T05:29:04.723Z,35.10
2018-05-03T05:31:32.892Z,35.13
2018-05-03T05:34:00.601Z,38.23
2018-05-03T05:36:29.151Z,33.57
2018-05-03T05:38:58.646Z,35.77
2018-05-03T05:41:26.136Z,36.70
2018-05-03T05:43:56.716Z,39.67
2018-05-03T05:46:25.211Z,34.27
2018-05-03T05:48:52.718Z,32.43
2018-05-03T05:51:21.274Z,36.57
2018-05-03T05:53:49.515Z,32.13
2018-05-03T05:56:17.063Z,32.00
2018-05-03T05:58:45.309Z,28.73
2018-05-03T06:01:12.842Z,30.93
2018-05-03T06:03:40.486Z,34.73
2018-05-03T06:06:09.307Z,33.80
2018-05-03T06:08:38.935Z,31.50
2018-05-03T06:11:07.452Z,34.17
2018-05-03T06:13:34.973Z,31.77
2018-05-03T06:16:04.650Z,25.23
2018-05-03T06:18:32.220Z,33.80
2018-05-03T06:20:59.786Z,29.67
2018-05-03T06:23:27.648Z,27.40
2018-05-03T06:25:55.193Z,37.40
2018-05-03T06:28:22.701Z,42.63
2018-05-03T06:30:52.484Z,29.03
2018-05-03T06:33:20.633Z,29.77
2018-05-03T06:35:48.201Z,28.73
2018-05-03T06:38:16.645Z,22.03
2018-05-03T06:40:47.048Z,23.27
2018-05-03T06:43:15.617Z,25.77
2018-05-03T06:45:43.138Z,22.73
2018-05-03T06:48:10.700Z,27.00
2018-05-03T06:50:38.221Z,24.57
2018-05-03T06:53:06.741Z,22.27
2018-05-03T06:55:37.065Z,22.13
2018-05-03T06:58:07.742Z,19.43
2018-05-03T07:00:35.509Z,20.70
2018-05-03T07:03:03.978Z,19.80
2018-05-03T07:05:51.206Z,22.47
2018-05-03T07:08:18.752Z,18.63
2018-05-03T07:13:24.021Z,23.33
2018-05-03T07:15:51.543Z,22.93
2018-05-03T07:18:19.077Z,18.50
2018-05-03T07:20:46.694Z,20.13
2018-05-03T07:23:14.267Z,18.97
2018-05-03T07:25:42.773Z,19.67
2018-05-03T07:28:10.334Z,21.60
2018-05-03T07:30:40.895Z,18.60
2018-05-03T07:33:08.515Z,17.77
2018-05-03T07:35:36.113Z,20.67
2018-05-03T07:38:04.740Z,19.23
2018-05-03T07:40:33.668Z,23.53
2018-05-03T07:43:01.372Z,18.03
2018-05-03T07:45:28.892Z,20.50
2018-05-03T07:47:57.816Z,18.20
2018-05-03T07:50:27.578Z,27.37
2018-05-03T07:52:55.095Z,20.03
2018-05-03T07:55:22.633Z,24.27
2018-05-03T07:57:54.583Z,22.50
2018-05-03T08:00:23.382Z,20.63
2018-05-03T08:02:53.297Z,18.97
2018-05-03T08:05:24.954Z,18.73
2018-05-03T08:07:53.265Z,18.00
2018-05-03T08:10:21.735Z,16.33
2018-05-03T08:12:50.322Z,16.30
2018-05-03T08:15:18.615Z,13.30
2018-05-03T08:20:50.262Z,17.10
2018-05-03T08:23:17.812Z,12.77
2018-05-03T08:25:45.322Z,10.17
2018-05-03T08:28:12.897Z,8.97
2018-05-03T08:30:44.634Z,12.40
2018-05-03T08:33:12.147Z,9.70
2018-05-03T08:35:39.791Z,9.30
2018-05-03T08:38:07.306Z,11.27
2018-05-03T08:40:35.571Z,12.93
2018-05-03T08:43:04.281Z,11.73
2018-05-03T08:45:31.956Z,11.50
2018-05-03T08:48:00.508Z,11.40
2018-05-03T08:50:30.851Z,10.50
2018-05-03T08:53:01.597Z,11.57
2018-05-03T08:55:31.754Z,10.33
2018-05-03T08:57:59.271Z,8.73
2018-05-03T09:00:47.148Z,9.53
2018-05-03T09:16:26.709Z,8.53
2018-05-03T09:18:55.465Z,7.43
2018-05-03T09:21:25.227Z,10.40
2018-05-03T09:23:52.786Z,8.90
2018-05-03T09:26:20.284Z,8.60
2018-05-03T09:28:48.514Z,7.37
2018-05-03T09:31:18.284Z,8.97
2018-05-03T09:33:46.650Z,9.40
2018-05-03T09:36:17.272Z,8.77
2018-05-03T09:38:44.798Z,8.80
2018-05-03T09:41:12.418Z,8.63
2018-05-03T09:43:40.008Z,10.30
2018-05-03T09:46:09.797Z,9.87
2018-05-03T09:48:38.132Z,8.80
2018-05-03T09:51:05.692Z,9.43
2018-05-03T09:53:33.229Z,13.97
2018-05-03T09:56:01.214Z,10.40
2018-05-03T09:58:29.664Z,10.40
2018-05-03T10:00:58.282Z,8.07
2018-05-03T10:03:25.801Z,8.77
2018-05-03T10:05:53.325Z,8.80
2018-05-03T10:08:20.873Z,10.83
2018-05-03T10:10:48.507Z,10.03
2018-05-03T10:13:16.117Z,10.47
2018-05-03T10:15:44.722Z,11.13
2018-05-03T10:18:12.321Z,8.07
2018-05-03T10:20:40.639Z,10.67
2018-05-03T10:23:09.070Z,9.07
2018-05-03T10:25:36.743Z,10.43
2018-05-03T10:28:07.148Z,9.20
2018-05-03T10:30:34.715Z,12.43
2018-05-03T10:33:02.330Z,9.87
2018-05-03T10:35:29.902Z,9.20
2018-05-03T10:37:58.506Z,10.83
2018-05-03T10:40:26.599Z,11.63
2018-05-03T10:42:56.060Z,11.53
2018-05-03T10:45:23.789Z,8.83
2018-05-03T10:47:51.391Z,8.50
2018-05-03T10:50:18.923Z,11.23
2018-05-03T10:52:46.440Z,8.47
2018-05-03T10:55:14.456Z,8.13
2018-05-03T10:57:42.546Z,10.57
2018-05-03T11:00:12.252Z,15.97
2018-05-03T11:02:39.796Z,9.70
2018-05-03T11:05:07.505Z,8.67
2018-05-03T11:07:35.013Z,8.47
2018-05-03T11:10:02.587Z,10.63
2018-05-03T11:12:30.139Z,8.37
2018-05-03T11:14:59.660Z,12.97
2018-05-03T11:17:27.311Z,13.73
2018-05-03T11:19:55.776Z,11.83
2018-05-03T11:22:23.278Z,9.03
2018-05-03T11:24:51.081Z,10.73
2018-05-03T11:27:20.726Z,18.97
2018-05-03T11:29:49.075Z,13.97
2018-05-03T11:32:16.661Z,8.67
2018-05-03T11:34:44.158Z,9.87
2018-05-03T11:37:14.377Z,9.80
2018-05-03T11:39:42.637Z,9.03
2018-05-03T11:42:12.009Z,14.50
2018-05-03T11:44:43.287Z,12.80
2018-05-03T11:47:11.752Z,8.80
2018-05-03T12:03:21.353Z,9.73
2018-05-03T12:05:50.608Z,9.23
2018-05-03T12:08:19.864Z,10.47
2018-05-03T12:10:48.242Z,13.83
2018-05-03T12:13:15.818Z,10.33
2018-05-03T12:15:43.468Z,13.40
2018-05-03T12:18:11.385Z,9.40
2018-05-03T12:20:40.091Z,13.03
2018-05-03T12:23:10.445Z,8.07
2018-05-03T12:25:41.015Z,13.97
2018-05-03T12:28:09.617Z,15.80
2018-05-03T12:30:37.296Z,12.50
2018-05-03T12:33:04.895Z,9.77
2018-05-03T12:35:32.578Z,10.90
2018-05-03T12:38:00.980Z,12.17
2018-05-03T12:40:28.616Z,9.83
2018-05-03T12:42:57.235Z,11.17
2018-05-03T12:45:24.913Z,13.57
2018-05-03T12:47:52.559Z,14.37
2018-05-03T12:53:22.724Z,11.20
2018-05-03T12:55:50.994Z,11.10
2018-05-03T12:58:18.498Z,8.93
2018-05-03T13:00:46.349Z,10.47
2018-05-03T13:03:14.707Z,9.67
2018-05-03T13:05:42.281Z,9.87
2018-05-03T13:08:10.681Z,9.13
2018-05-03T13:10:38.420Z,8.50
2018-05-03T13:13:06.907Z,9.03
2018-05-03T13:15:34.432Z,14.33
2018-05-03T13:18:01.941Z,15.13
2018-05-03T13:20:29.467Z,8.80
2018-05-03T13:22:59.369Z,9.20
2018-05-03T13:25:26.900Z,10.47
2018-05-03T13:27:55.183Z,9.77
2018-05-03T13:30:22.802Z,10.53
2018-05-03T13:32:50.328Z,9.67
2018-05-03T13:35:20.479Z,10.87
2018-05-03T13:37:51.085Z,14.47
2018-05-03T13:40:18.641Z,9.00
2018-05-03T13:42:48.731Z,12.17
2018-05-03T13:45:16.993Z,12.07
2018-05-03T13:47:44.688Z,13.50
2018-05-03T13:50:12.400Z,10.90
2018-05-03T13:52:42.836Z,13.50
2018-05-03T13:55:10.420Z,11.13
2018-05-03T13:57:38.007Z,10.27
2018-05-03T14:00:05.531Z,10.57
2018-05-03T14:02:33.587Z,25.17
2018-05-03T14:05:01.152Z,17.80
2018-05-03T14:07:28.740Z,18.63
2018-05-03T14:09:56.282Z,14.43
2018-05-03T14:12:23.785Z,15.97
2018-05-03T14:14:51.515Z,15.20
2018-05-03T14:17:21.440Z,9.70
2018-05-03T14:19:49.036Z,24.50
2018-05-03T14:22:17.560Z,14.73
2018-05-03T14:24:45.047Z,37.00
2018-05-03T14:27:13.638Z,37.83
2018-05-03T14:29:41.932Z,39.70
2018-05-03T14:32:11.708Z,26.87
2018-05-03T14:34:39.225Z,21.60
2018-05-03T14:37:07.637Z,15.00
2018-05-03T14:39:36.647Z,30.27
2018-05-03T14:42:05.147Z,15.37
2018-05-03T14:44:34.368Z,10.93
2018-05-03T14:47:03.163Z,10.53
2018-05-03T14:49:31.725Z,11.20
2018-05-03T14:51:59.282Z,15.87
2018-05-03T14:54:27.268Z,10.83
2018-05-03T14:56:54.966Z,10.80
2018-05-03T14:59:24.039Z,10.73
2018-05-03T15:01:52.436Z,13.43
2018-05-03T15:04:21.009Z,9.47
2018-05-03T15:06:49.263Z,9.33
2018-05-03T15:09:16.819Z,14.90
2018-05-03T15:11:44.592Z,13.33
2018-05-03T15:14:13.050Z,13.07
2018-05-03T15:16:40.860Z,16.83
2018-05-03T15:19:11.172Z,11.17
2018-05-03T15:21:40.623Z,14.33
2018-05-03T15:24:08.294Z,11.97
2018-05-03T15:26:39.769Z,9.97
2018-05-03T15:29:10.321Z,13.97
2018-05-03T15:31:37.875Z,12.17
2018-05-03T15:34:06.239Z,12.60
2018-05-03T15:36:34.734Z,12.47
2018-05-03T15:39:02.238Z,9.17
2018-05-03T15:41:29.750Z,16.83
2018-05-03T15:44:00.252Z,13.23
2018-05-03T15:46:29.796Z,13.37
2018-05-03T15:48:59.195Z,10.50
2018-05-03T15:51:26.873Z,11.63
2018-05-03T15:53:56.820Z,13.37
2018-05-03T15:56:24.338Z,17.47
2018-05-03T15:58:52.890Z,11.67
2018-05-03T16:01:22.597Z,11.63
2018-05-03T16:03:50.174Z,14.97
2018-05-03T16:06:17.775Z,16.30
2018-05-03T16:08:47.400Z,14.10
2018-05-03T16:11:14.940Z,17.03
2018-05-03T16:13:44.160Z,17.53
2018-05-03T16:16:13.497Z,16.03
2018-05-03T16:18:41.977Z,18.47
2018-05-03T16:21:09.536Z,15.17
2018-05-03T16:23:37.066Z,12.73
2018-05-03T16:26:06.537Z,13.03
2018-05-03T16:28:34.040Z,10.67
2018-05-03T16:31:05.816Z,11.17
2018-05-03T16:33:36.194Z,12.43
2018-05-03T16:36:04.571Z,12.10
2018-05-03T16:38:35.635Z,14.67
2018-05-03T16:41:03.991Z,18.73
2018-05-03T16:43:32.205Z,11.97
2018-05-03T16:46:01.064Z,15.63
2018-05-03T16:48:30.605Z,13.00
2018-05-03T16:50:59.089Z,13.63
2018-05-03T16:53:26.669Z,13.83
2018-05-03T16:55:55.159Z,12.10
2018-05-03T16:58:22.663Z,16.17
2018-05-03T17:00:51.430Z,12.27
2018-05-03T17:03:19.405Z,16.07
2018-05-03T17:05:47.849Z,21.07
2018-05-03T17:08:15.372Z,13.00
2018-05-03T17:10:46.973Z,14.60
2018-05-03T17:13:18.921Z,10.43
2018-05-03T17:15:48.783Z,10.90
2018-05-03T17:18:20.066Z,18.33
2018-05-03T17:20:48.430Z,16.00
2018-05-03T17:23:15.958Z,14.10
2018-05-03T17:25:44.275Z,13.73
2018-05-03T17:28:14.064Z,17.63
2018-05-03T17:30:46.751Z,13.70
2018-05-03T17:33:15.415Z,16.40
2018-05-03T17:50:41.809Z,13.53
2018-05-03T17:53:09.388Z,12.90
2018-05-03T17:55:36.974Z,12.30
2018-05-03T17:58:04.571Z,13.27
2018-05-03T18:00:32.130Z,11.77
2018-05-03T18:02:59.683Z,11.27
2018-05-03T18:05:29.145Z,17.27
2018-05-03T18:07:56.716Z,21.97
2018-05-03T18:10:25.102Z,29.53
2018-05-03T18:12:52.634Z,12.70
2018-05-03T18:15:20.931Z,18.80
2018-05-03T18:17:48.805Z,16.47
2018-05-03T18:20:16.426Z,10.70
2018-05-03T18:22:44.000Z,9.83
2018-05-03T18:25:11.552Z,10.57
2018-05-03T18:27:39.084Z,9.50
2018-05-03T18:30:06.638Z,13.00
2018-05-03T18:32:34.214Z,14.17
2018-05-03T18:35:01.769Z,11.53
2018-05-03T18:37:29.287Z,14.33
2018-05-03T18:39:56.784Z,9.60
2018-05-03T18:42:24.307Z,14.73
2018-05-03T18:44:51.931Z,12.13
2018-05-03T18:47:19.470Z,12.03
2018-05-03T18:49:48.036Z,12.47
2018-05-03T18:52:16.252Z,10.97
2018-05-03T18:54:43.850Z,15.27
2018-05-03T18:57:11.393Z,14.50
2018-05-03T18:59:38.898Z,14.10
2018-05-03T19:02:07.323Z,14.87
2018-05-03T19:04:34.935Z,14.23
2018-05-03T19:07:02.470Z,18.30
2018-05-03T19:09:30.016Z,12.73
2018-05-03T19:11:57.629Z,12.37
2018-05-03T19:14:25.401Z,14.60
2018-05-03T19:16:52.958Z,12.63
2018-05-03T19:19:20.603Z,14.63
2018-05-03T19:21:48.201Z,12.53
2018-05-03T19:24:16.654Z,12.20
2018-05-03T19:26:44.220Z,16.13
2018-05-03T19:29:11.798Z,16.90
2018-05-03T19:31:39.309Z,12.53
2018-05-03T19:34:06.847Z,12.30
2018-05-03T19:36:34.429Z,16.90
2018-05-03T19:39:02.802Z,13.67
2018-05-03T19:41:30.313Z,12.90
2018-05-03T19:43:57.841Z,12.73
2018-05-03T19:46:25.534Z,11.03
2018-05-03T19:48:54.033Z,12.10
2018-05-03T19:51:23.269Z,11.10
2018-05-03T19:53:53.138Z,11.07
2018-05-03T19:56:21.784Z,13.10
2018-05-03T19:58:49.311Z,13.97
2018-05-03T20:01:16.891Z,13.07
2018-05-03T20:03:44.465Z,12.23
2018-05-03T20:06:12.403Z,14.83
2018-05-03T20:08:40.018Z,17.37
2018-05-03T20:11:07.544Z,13.63
2018-05-03T20:13:35.140Z,14.67
2018-05-03T20:16:03.618Z,16.07
2018-05-03T20:18:31.137Z,14.20
2018-05-03T20:20:59.566Z,12.70
2018-05-03T20:23:27.184Z,12.20
2018-05-03T20:25:54.814Z,13.90
2018-05-03T20:28:22.335Z,17.30
2018-05-03T20:30:51.581Z,15.50
2018-05-03T20:33:19.164Z,13.40
2018-05-03T20:35:46.781Z,11.40
2018-05-03T20:38:14.336Z,16.13
2018-05-03T20:40:42.678Z,12.93
2018-05-03T20:43:11.270Z,15.67
2018-05-03T20:45:39.710Z,18.00
2018-05-03T20:48:08.073Z,10.10
2018-05-03T20:50:36.398Z,12.20
2018-05-03T20:53:04.975Z,11.00
2018-05-03T20:55:32.535Z,14.90
2018-05-03T20:58:00.038Z,9.90
2018-05-03T21:00:27.585Z,14.50
2018-05-03T21:02:55.243Z,14.50
2018-05-03T21:05:22.781Z,11.47
2018-05-03T21:07:50.296Z,12.10
2018-05-03T21:10:17.797Z,10.27
2018-05-03T21:12:45.369Z,14.20
2018-05-03T21:15:15.149Z,10.60
2018-05-03T21:17:42.745Z,14.03
2018-05-03T21:20:10.273Z,10.00
2018-05-03T21:22:37.764Z,11.13
2018-05-03T21:25:05.286Z,11.47
2018-05-03T21:27:32.940Z,12.57
2018-05-03T21:30:00.424Z,15.27
2018-05-03T21:32:28.537Z,13.33
2018-05-03T21:34:57.995Z,10.53
2018-05-03T21:37:25.536Z,10.23
2018-05-03T21:39:54.020Z,12.77
2018-05-03T21:42:21.535Z,12.87
2018-05-03T21:44:49.980Z,10.60
2018-05-03T21:47:17.480Z,9.70
2018-05-03T21:49:45.940Z,11.83
2018-05-03T21:52:13.468Z,15.23
2018-05-03T21:54:41.209Z,14.93
2018-05-03T21:57:08.837Z,12.07
2018-05-03T21:59:36.350Z,9.83
2018-05-03T22:02:03.876Z,11.53
2018-05-03T22:04:31.394Z,10.60
2018-05-03T22:06:58.896Z,14.90
2018-05-03T22:09:26.403Z,13.10
2018-05-03T22:11:53.921Z,10.17
2018-05-03T22:14:21.474Z,10.13
2018-05-03T22:16:49.137Z,17.20
2018-05-03T22:19:16.691Z,17.27
2018-05-03T22:21:44.982Z,13.70
2018-05-03T22:24:12.526Z,13.60
2018-05-03T22:26:40.139Z,12.90
2018-05-03T22:29:07.691Z,14.80
2018-05-03T22:31:35.241Z,14.73
2018-05-03T22:34:02.845Z,13.73
2018-05-03T22:36:30.363Z,15.50
2018-05-03T22:38:57.907Z,18.60
2018-05-03T22:41:25.484Z,14.10
2018-05-03T22:43:53.034Z,17.00
2018-05-03T22:46:20.558Z,15.17
2018-05-03T22:48:48.152Z,18.33
2018-05-03T22:51:15.752Z,14.97
2018-05-03T22:53:43.304Z,17.10
2018-05-03T22:56:10.882Z,17.07
2018-05-03T22:58:38.397Z,17.67
2018-05-03T23:01:05.912Z,19.30
2018-05-03T23:03:33.433Z,19.83
2018-05-03T23:06:01.003Z,16.37
2018-05-03T23:08:29.564Z,21.13
2018-05-03T23:10:57.109Z,18.87
2018-05-03T23:13:24.636Z,19.73
2018-05-03T23:15:52.235Z,16.33
2018-05-03T23:18:19.751Z,23.77
2018-05-03T23:20:47.321Z,21.57
2018-05-03T23:23:15.775Z,19.63
2018-05-03T23:25:43.417Z,19.57
2018-05-03T23:28:10.993Z,21.77
2018-05-03T23:30:38.558Z,20.50
2018-05-03T23:33:06.132Z,26.70
2018-05-03T23:35:33.636Z,18.60
2018-05-03T23:38:01.143Z,19.30
2018-05-03T23:40:28.688Z,20.30
2018-05-03T23:42:56.290Z,25.53
2018-05-03T23:45:23.803Z,18.60
2018-05-03T23:47:51.390Z,20.07
2018-05-03T23:50:20.576Z,19.87
2018-05-03T23:52:48.212Z,20.20
2018-05-03T23:55:15.764Z,22.47
2018-05-03T23:57:43.273Z,24.07
